Time;durP1;ratioP1;P1;durP2;ratioP2;P2;SDS_P1;SDS_P2;PMS_P1;PMS_P2;Temp;Humidity;BMP_temperature;BMP_pressure;BME280_temperature;BME280_humidity;BME280_pressure;Samples;Min_cycle;Max_cycle;Signal;HPM_P1;HPM_P2
2023/05/12 00:00:17;;;;;;;4.60;3.60;;;23.50;55.30;;;;;;221637;1262;24178;-47
2023/05/12 00:05:42;;;;;;;7.40;4.30;;;23.50;55.20;;;;;;221447;1267;23893;-44
2023/05/12 00:10:46;;;;;;;9.80;4.50;;;23.50;55.70;;;;;;221259;1266;22521;-46
2023/05/12 00:15:53;;;;;;;6.30;4.40;;;23.60;55.00;;;;;;221823;1260;22522;-45
2023/05/12 00:20:58;;;;;;;5.10;4.30;;;23.60;55.00;;;;;;221822;1264;22510;-46
2023/05/12 00:26:02;;;;;;;6.80;3.90;;;23.60;55.10;;;;;;221439;1262;24219;-45
2023/05/12 00:31:06;;;;;;;7.20;3.80;;;23.60;55.30;;;;;;221483;1267;22508;-48
2023/05/12 00:36:13;;;;;;;4.80;3.50;;;23.50;54.50;;;;;;221575;1270;22575;-44
2023/05/12 00:41:27;;;;;;;4.10;3.50;;;23.50;54.70;;;;;;221464;1263;24187;-45
2023/05/12 00:46:31;;;;;;;4.20;3.60;;;23.40;54.80;;;;;;221838;1264;24262;-46
2023/05/12 00:51:36;;;;;;;3.60;3.30;;;23.40;54.80;;;;;;221922;1267;22566;-44
2023/05/12 00:56:41;;;;;;;3.40;3.10;;;23.40;55.10;;;;;;222045;1265;24187;-44
2023/05/12 01:01:48;;;;;;;4.70;3.20;;;23.30;54.50;;;;;;221771;1264;24340;-44
2023/05/12 01:06:57;;;;;;;6.50;3.70;;;23.30;54.50;;;;;;221868;1264;22599;-46
2023/05/12 01:12:01;;;;;;;5.00;3.60;;;23.30;54.70;;;;;;221895;1271;22568;-44
2023/05/12 01:17:12;;;;;;;5.90;3.30;;;23.20;54.40;;;;;;221689;1264;22719;-50
2023/05/12 01:22:17;;;;;;;5.80;3.40;;;23.20;53.70;;;;;;222038;1267;22633;-46
2023/05/12 01:27:24;;;;;;;5.30;3.70;;;23.20;54.00;;;;;;221849;1261;22814;-43
2023/05/12 01:32:29;;;;;;;3.30;2.90;;;23.20;54.80;;;;;;221855;1264;22520;-45
2023/05/12 01:37:34;;;;;;;3.40;2.80;;;23.10;54.20;;;;;;222096;1258;25389;-48
2023/05/12 01:42:41;;;;;;;4.70;3.20;;;23.10;54.20;;;;;;221725;1266;25262;-46
2023/05/12 01:47:47;;;;;;;2.90;2.70;;;23.10;54.50;;;;;;221769;1263;22514;-50
2023/05/12 01:52:51;;;;;;;4.70;3.20;;;23.10;54.20;;;;;;221805;1268;22651;-47
2023/05/12 01:57:56;;;;;;;5.00;2.90;;;23.00;54.10;;;;;;221911;1265;23848;-50
2023/05/12 02:03:01;;;;;;;3.30;2.80;;;23.00;54.10;;;;;;221847;1263;24250;-43
2023/05/12 02:08:06;;;;;;;4.30;3.10;;;23.00;54.10;;;;;;221769;1267;24223;-45
2023/05/12 02:13:10;;;;;;;5.80;3.50;;;23.00;54.10;;;;;;221890;1258;216703;-49
2023/05/12 02:18:15;;;;;;;3.70;3.00;;;23.00;54.20;;;;;;221705;1256;24366;-48
2023/05/12 02:23:20;;;;;;;4.00;2.90;;;23.00;54.10;;;;;;221672;1257;22544;-46
2023/05/12 02:28:24;;;;;;;3.00;2.80;;;23.00;54.10;;;;;;221925;1256;25335;-45
2023/05/12 02:33:30;;;;;;;2.80;2.60;;;22.90;54.20;;;;;;222055;1261;22644;-43
2023/05/12 02:38:35;;;;;;;2.90;2.70;;;22.90;54.10;;;;;;222102;1258;22515;-50
2023/05/12 02:43:39;;;;;;;5.30;2.90;;;22.90;54.10;;;;;;221883;1267;24068;-48
2023/05/12 02:48:43;;;;;;;2.90;2.70;;;22.90;54.10;;;;;;221694;1263;23892;-44
2023/05/12 02:53:47;;;;;;;3.30;3.00;;;22.90;54.10;;;;;;221576;1264;22525;-44
2023/05/12 02:58:52;;;;;;;5.50;3.50;;;22.90;54.10;;;;;;221795;1267;23646;-45
2023/05/12 03:03:56;;;;;;;4.80;2.50;;;22.90;54.10;;;;;;221775;1271;22563;-45
2023/05/12 03:09:00;;;;;;;3.10;2.90;;;22.90;54.60;;;;;;221894;1263;23660;-44
2023/05/12 03:14:04;;;;;;;2.70;2.50;;;22.90;54.10;;;;;;221915;1258;23622;-49
2023/05/12 03:19:09;;;;;;;3.20;2.80;;;22.80;54.10;;;;;;221770;1264;22520;-48
2023/05/12 03:24:13;;;;;;;2.10;2.00;;;22.80;54.30;;;;;;221742;1264;22552;-48
2023/05/12 03:29:17;;;;;;;3.10;2.50;;;22.80;54.30;;;;;;221845;1263;24225;-51
2023/05/12 03:34:22;;;;;;;3.40;2.80;;;22.70;54.00;;;;;;221647;1265;22788;-44
2023/05/12 03:39:26;;;;;;;3.10;2.90;;;22.70;54.00;;;;;;221788;1258;22551;-45
2023/05/12 03:44:31;;;;;;;3.20;2.90;;;22.70;54.00;;;;;;222080;1257;22518;-46
2023/05/12 03:49:35;;;;;;;3.10;2.70;;;22.70;53.90;;;;;;221829;1267;22521;-45
2023/05/12 03:54:40;;;;;;;3.00;2.80;;;22.70;54.00;;;;;;221795;1264;24187;-49
2023/05/12 03:59:44;;;;;;;2.80;2.60;;;22.70;54.00;;;;;;221879;1261;24075;-47
2023/05/12 04:04:48;;;;;;;3.10;2.80;;;22.70;54.00;;;;;;221784;1261;22535;-48
2023/05/12 04:09:52;;;;;;;2.80;2.60;;;22.60;54.20;;;;;;221844;1267;23886;-46
2023/05/12 04:14:56;;;;;;;4.20;2.90;;;22.60;54.00;;;;;;221847;1256;22525;-47
2023/05/12 04:20:01;;;;;;;3.50;3.20;;;22.60;54.20;;;;;;221965;1266;25453;-46
2023/05/12 04:25:06;;;;;;;3.50;2.60;;;22.60;54.10;;;;;;221794;1257;22522;-44
2023/05/12 04:30:11;;;;;;;2.60;2.40;;;22.60;54.40;;;;;;221808;1259;25350;-49
2023/05/12 04:35:16;;;;;;;4.80;2.60;;;22.60;53.90;;;;;;221662;1257;22515;-45
2023/05/12 04:40:21;;;;;;;2.90;2.60;;;22.60;54.50;;;;;;221739;1263;22534;-49
2023/05/12 04:45:26;;;;;;;4.10;2.80;;;22.60;54.30;;;;;;221794;1259;22524;-46
2023/05/12 04:50:30;;;;;;;4.20;2.60;;;22.60;54.50;;;;;;221999;1266;22586;-47
2023/05/12 04:55:35;;;;;;;4.40;3.10;;;22.60;53.90;;;;;;221908;1266;22516;-50
2023/05/12 05:00:39;;;;;;;3.40;3.10;;;22.60;54.10;;;;;;221633;1267;22515;-47
2023/05/12 05:05:44;;;;;;;5.90;3.10;;;22.60;54.20;;;;;;225440;1264;22525;-49
2023/05/12 05:10:49;;;;;;;3.60;2.60;;;22.60;53.90;;;;;;221699;1263;22642;-47
2023/05/12 05:15:54;;;;;;;3.10;2.80;;;22.60;53.90;;;;;;226691;1264;23312;-49
2023/05/12 05:21:00;;;;;;;3.70;2.90;;;22.60;53.60;;;;;;221984;1264;24319;-48
2023/05/12 05:26:04;;;;;;;4.80;2.60;;;22.60;53.40;;;;;;221807;1258;24056;-55
2023/05/12 05:31:15;;;;;;;4.10;2.70;;;22.60;53.70;;;;;;221698;1256;24190;-49
2023/05/12 05:36:21;;;;;;;26.50;11.70;;;22.60;53.50;;;;;;221797;1257;22629;-60
2023/05/12 05:41:25;;;;;;;132.50;57.50;;;22.60;53.60;;;;;;221707;1257;22612;-46
2023/05/12 05:46:30;;;;;;;123.30;58.00;;;22.60;54.10;;;;;;221883;1264;24212;-55
2023/05/12 05:51:34;;;;;;;83.30;37.00;;;22.70;54.00;;;;;;221819;1265;25275;-52
2023/05/12 05:56:40;;;;;;;130.50;59.20;;;22.80;55.30;;;;;;221794;1264;24944;-54
2023/05/12 06:01:44;;;;;;;130.00;58.80;;;22.80;58.80;;;;;;221707;1257;23140;-55
2023/05/12 06:06:48;;;;;;;121.30;54.30;;;22.90;59.00;;;;;;221683;1256;25263;-52
2023/05/12 06:11:52;;;;;;;102.40;47.80;;;22.90;58.80;;;;;;222088;1254;22511;-52
2023/05/12 06:16:56;;;;;;;98.70;45.10;;;23.00;58.10;;;;;;221535;1256;22535;-52
2023/05/12 06:22:01;;;;;;;96.10;41.90;;;22.90;58.70;;;;;;221386;1266;22514;-54
2023/05/12 06:27:06;;;;;;;94.90;40.20;;;22.80;58.60;;;;;;221552;1259;22589;-51
2023/05/12 06:32:10;;;;;;;90.60;37.40;;;22.80;58.80;;;;;;221834;1266;22518;-51
2023/05/12 06:37:14;;;;;;;76.30;35.10;;;22.80;58.90;;;;;;221482;1257;24042;-53
2023/05/12 06:42:18;;;;;;;70.30;33.70;;;22.90;58.00;;;;;;221715;1249;22627;-50
2023/05/12 06:47:26;;;;;;;66.20;32.70;;;23.10;57.60;;;;;;221603;1256;24245;-52
2023/05/12 06:52:32;;;;;;;55.00;30.40;;;23.10;57.60;;;;;;221847;1255;22518;-52
2023/05/12 06:57:36;;;;;;;62.40;30.60;;;23.00;57.40;;;;;;221888;1258;22558;-45
2023/05/12 07:02:40;;;;;;;61.70;29.00;;;23.00;57.60;;;;;;222265;1256;25098;-47
2023/05/12 07:07:45;;;;;;;59.20;28.10;;;23.10;56.30;;;;;;221683;1264;22611;-45
2023/05/12 07:12:51;;;;;;;51.90;26.70;;;23.20;56.10;;;;;;224883;1264;22508;-45
2023/05/12 07:17:55;;;;;;;57.40;27.90;;;23.30;55.60;;;;;;223283;1266;22616;-46
2023/05/12 07:22:59;;;;;;;60.00;26.50;;;23.40;55.00;;;;;;221702;1263;23910;-45
2023/05/12 07:28:04;;;;;;;44.30;23.80;;;23.20;54.20;;;;;;222187;1266;24218;-44
2023/05/12 07:33:08;;;;;;;47.30;22.80;;;23.20;54.40;;;;;;221636;1268;22627;-45
2023/05/12 07:38:12;;;;;;;38.90;21.20;;;23.10;53.60;;;;;;221653;1255;25395;-45
2023/05/12 07:43:16;;;;;;;37.00;21.00;;;23.20;54.10;;;;;;221692;1264;22513;-47
2023/05/12 07:48:21;;;;;;;38.00;20.50;;;23.10;53.80;;;;;;221919;1262;22517;-49
2023/05/12 07:53:25;;;;;;;42.20;19.30;;;23.10;54.20;;;;;;221584;1264;22535;-49
2023/05/12 07:58:29;;;;;;;37.50;19.60;;;23.10;54.20;;;;;;221672;1264;23901;-47
2023/05/12 08:03:34;;;;;;;37.40;20.20;;;23.10;53.80;;;;;;221673;1260;23899;-52
2023/05/12 08:08:38;;;;;;;35.40;19.70;;;23.20;53.60;;;;;;221873;1263;22511;-45
2023/05/12 08:13:42;;;;;;;33.80;18.80;;;23.10;54.00;;;;;;221775;1267;22673;-48
2023/05/12 08:18:47;;;;;;;30.90;18.20;;;23.10;53.60;;;;;;221661;1265;23913;-45
2023/05/12 08:23:51;;;;;;;29.70;17.40;;;23.10;53.40;;;;;;221815;1267;22507;-47
2023/05/12 08:28:55;;;;;;;28.60;16.10;;;23.10;53.30;;;;;;221609;1264;22520;-51
2023/05/12 08:33:59;;;;;;;27.80;15.60;;;23.20;53.20;;;;;;221722;1266;22873;-46
2023/05/12 08:39:13;;;;;;;29.60;16.00;;;23.20;53.10;;;;;;222611;1265;25232;-50
2023/05/12 08:44:20;;;;;;;25.40;15.90;;;23.30;52.70;;;;;;222143;1256;25378;-48
2023/05/12 08:49:28;;;;;;;26.80;14.80;;;23.30;53.00;;;;;;221888;1263;24179;-51
2023/05/12 08:54:35;;;;;;;28.10;14.50;;;23.30;52.80;;;;;;222100;1266;22511;-49
2023/05/12 08:59:57;;;;;;;21.50;13.70;;;23.30;52.70;;;;;;221815;1263;22506;-48
2023/05/12 09:05:02;;;;;;;21.50;13.10;;;23.30;52.70;;;;;;221909;1266;22604;-48
2023/05/12 09:10:13;;;;;;;20.30;13.10;;;23.30;52.70;;;;;;221896;1264;24176;-45
2023/05/12 09:15:40;;;;;;;25.30;13.70;;;23.40;53.00;;;;;;221955;1263;22501;-48
2023/05/12 09:20:44;;;;;;;22.20;12.60;;;23.50;54.00;;;;;;221874;1256;22640;-48
2023/05/12 09:26:02;;;;;;;18.80;13.30;;;23.50;54.30;;;;;;221798;1263;22527;-47
2023/05/12 09:31:21;;;;;;;18.50;12.00;;;23.50;54.40;;;;;;221998;1263;24219;-49
2023/05/12 09:36:25;;;;;;;18.20;11.10;;;23.40;53.80;;;;;;222074;1264;23330;-46
2023/05/12 09:41:35;;;;;;;13.80;10.10;;;23.50;53.60;;;;;;221932;1267;23008;-47
2023/05/12 09:46:39;;;;;;;20.40;10.80;;;23.50;53.10;;;;;;221708;1259;22521;-47
2023/05/12 09:51:44;;;;;;;21.60;10.90;;;23.50;52.90;;;;;;221872;1265;22651;-49
2023/05/12 09:56:48;;;;;;;12.90;9.90;;;23.50;53.10;;;;;;221297;1259;25879;-47
2023/05/12 10:01:55;;;;;;;14.30;9.90;;;23.60;52.50;;;;;;220636;1271;22640;-47
2023/05/12 10:07:00;;;;;;;14.10;9.00;;;23.60;52.40;;;;;;220767;1271;22646;-48
2023/05/12 10:12:05;;;;;;;13.40;9.40;;;23.60;52.10;;;;;;220640;1265;22537;-47
2023/05/12 10:17:11;;;;;;;13.80;8.70;;;23.60;52.10;;;;;;220405;1268;22637;-50
2023/05/12 10:22:18;;;;;;;14.40;8.80;;;23.70;52.20;;;;;;220601;1265;24347;-49
2023/05/12 10:27:24;;;;;;;16.20;9.50;;;23.70;51.70;;;;;;220722;1264;22660;-48
2023/05/12 10:32:28;;;;;;;12.00;8.70;;;23.70;51.80;;;;;;220875;1259;22596;-48
2023/05/12 10:37:34;;;;;;;12.90;8.20;;;23.60;51.80;;;;;;221282;1263;24248;-50
2023/05/12 10:42:41;;;;;;;11.60;7.90;;;23.70;51.40;;;;;;222025;1263;22651;-49
2023/05/12 10:47:46;;;;;;;14.60;7.90;;;23.80;51.70;;;;;;222003;1256;25458;-47
2023/05/12 10:52:55;;;;;;;12.00;7.50;;;23.80;51.30;;;;;;221992;1259;22992;-46
2023/05/12 10:58:10;;;;;;;7.90;7.10;;;23.90;51.00;;;;;;221773;1257;24222;-47
2023/05/12 11:03:21;;;;;;;11.70;6.50;;;23.90;50.80;;;;;;221838;1253;24290;-49
2023/05/12 11:08:28;;;;;;;11.20;7.50;;;24.00;50.70;;;;;;221469;1259;22567;-47
2023/05/12 11:13:34;;;;;;;8.30;6.80;;;23.90;50.80;;;;;;221546;1266;22533;-47
2023/05/12 11:18:39;;;;;;;10.30;6.80;;;23.90;51.20;;;;;;221572;1267;22525;-47
2023/05/12 11:23:49;;;;;;;10.10;7.20;;;23.90;50.90;;;;;;221535;1261;22507;-47
2023/05/12 11:28:57;;;;;;;9.30;6.40;;;23.90;50.30;;;;;;221976;1256;22521;-49
2023/05/12 11:34:03;;;;;;;7.70;5.80;;;23.90;50.40;;;;;;221530;1263;24235;-48
2023/05/12 11:39:21;;;;;;;9.10;6.40;;;23.90;50.40;;;;;;221457;1269;24531;-49
2023/05/12 11:44:25;;;;;;;7.00;5.20;;;23.90;49.90;;;;;;221795;1259;25495;-46
2023/05/12 11:49:30;;;;;;;7.80;5.30;;;23.90;50.50;;;;;;221622;1253;22507;-47
2023/05/12 11:54:34;;;;;;;6.10;5.50;;;23.90;49.40;;;;;;221587;1266;22538;-48
2023/05/12 11:59:38;;;;;;;7.70;5.60;;;23.90;49.40;;;;;;221584;1250;24066;-46
2023/05/12 12:04:42;;;;;;;6.60;5.40;;;24.00;50.00;;;;;;221610;1268;23116;-48
2023/05/12 12:09:47;;;;;;;6.70;5.70;;;24.00;50.00;;;;;;221656;1265;22541;-46
2023/05/12 12:14:51;;;;;;;7.20;5.20;;;24.00;49.20;;;;;;221643;1267;22515;-46
2023/05/12 12:19:56;;;;;;;7.10;5.40;;;24.00;49.40;;;;;;221712;1263;24233;-47
2023/05/12 12:25:01;;;;;;;10.90;6.10;;;24.00;49.60;;;;;;221692;1259;25320;-50
2023/05/12 12:30:06;;;;;;;21.10;10.00;;;24.00;50.00;;;;;;221349;1260;24197;-51
2023/05/12 12:35:12;;;;;;;100.50;35.20;;;24.00;49.80;;;;;;221777;1270;22524;-48
2023/05/12 12:40:18;;;;;;;20.90;10.60;;;24.10;51.80;;;;;;221675;1259;25188;-45
2023/05/12 12:45:22;;;;;;;37.10;11.10;;;24.10;50.10;;;;;;221990;1258;22511;-46
2023/05/12 12:50:26;;;;;;;23.60;11.80;;;23.90;50.40;;;;;;221954;1265;22631;-46
2023/05/12 12:55:31;;;;;;;26.60;12.40;;;24.10;51.10;;;;;;221703;1263;22515;-47
2023/05/12 13:00:35;;;;;;;24.40;12.00;;;24.10;50.50;;;;;;221601;1268;22514;-46
2023/05/12 13:05:40;;;;;;;28.10;11.80;;;24.10;50.40;;;;;;221697;1271;24198;-45
2023/05/12 13:10:44;;;;;;;19.20;10.00;;;24.10;49.90;;;;;;221619;1265;22544;-45
2023/05/12 13:15:48;;;;;;;23.10;10.20;;;24.10;50.10;;;;;;221963;1265;25381;-48
2023/05/12 13:20:53;;;;;;;19.80;10.00;;;24.10;50.00;;;;;;221816;1264;22514;-45
2023/05/12 13:25:57;;;;;;;20.40;9.40;;;24.10;49.90;;;;;;221604;1259;24375;-44
2023/05/12 13:31:01;;;;;;;19.20;8.30;;;24.10;49.80;;;;;;221617;1266;22531;-45
2023/05/12 13:36:06;;;;;;;20.70;8.80;;;24.10;49.30;;;;;;221265;1257;23039;-46
2023/05/12 13:41:10;;;;;;;18.30;8.50;;;24.00;50.00;;;;;;221590;1264;24177;-48
2023/05/12 13:46:14;;;;;;;16.30;8.40;;;24.00;49.70;;;;;;221859;1265;25483;-45
2023/05/12 13:51:19;;;;;;;14.80;8.30;;;23.90;49.70;;;;;;221529;1254;25266;-47
2023/05/12 13:56:23;;;;;;;15.90;7.90;;;24.10;49.70;;;;;;221515;1266;26475;-46
2023/05/12 14:01:27;;;;;;;21.40;8.10;;;24.10;49.20;;;;;;221589;1267;24293;-45
2023/05/12 14:06:31;;;;;;;18.60;7.10;;;24.00;49.30;;;;;;221889;1256;22671;-46
2023/05/12 14:11:35;;;;;;;16.60;6.40;;;23.90;49.30;;;;;;221698;1268;174632;-54
2023/05/12 14:16:40;;;;;;;13.80;6.70;;;23.90;49.80;;;;;;221559;1264;22517;-45
2023/05/12 14:21:44;;;;;;;11.20;6.70;;;23.90;49.50;;;;;;221806;1266;22642;-45
2023/05/12 14:26:48;;;;;;;14.30;6.20;;;23.90;49.10;;;;;;221804;1260;24066;-46
2023/05/12 14:31:52;;;;;;;11.50;6.40;;;23.90;48.90;;;;;;222001;1267;22518;-46
2023/05/12 14:36:57;;;;;;;10.00;6.40;;;23.80;49.30;;;;;;221726;1259;23949;-47
2023/05/12 14:42:01;;;;;;;12.10;5.80;;;23.80;48.80;;;;;;222067;1257;25485;-48
2023/05/12 14:47:07;;;;;;;10.20;5.70;;;23.80;48.80;;;;;;221774;1269;22934;-46
2023/05/12 14:52:12;;;;;;;7.30;5.40;;;23.80;48.70;;;;;;221903;1259;22811;-46
2023/05/12 14:57:16;;;;;;;10.30;5.40;;;23.80;48.70;;;;;;221671;1263;22516;-48
2023/05/12 15:02:20;;;;;;;7.40;5.60;;;23.80;48.60;;;;;;221669;1262;22517;-47
2023/05/12 15:07:24;;;;;;;8.70;5.00;;;23.80;48.50;;;;;;221750;1263;22504;-48
2023/05/12 15:12:29;;;;;;;8.20;5.20;;;23.80;49.00;;;;;;221740;1260;24168;-46
2023/05/12 15:17:33;;;;;;;8.30;5.10;;;23.80;48.40;;;;;;222096;1247;24206;-45
2023/05/12 15:22:37;;;;;;;8.80;4.90;;;23.80;48.50;;;;;;221987;1265;25523;-48
2023/05/12 15:27:41;;;;;;;6.40;4.40;;;23.80;48.60;;;;;;221744;1257;22746;-47
2023/05/12 15:32:45;;;;;;;10.10;4.40;;;23.70;48.90;;;;;;221828;1266;22576;-47
2023/05/12 15:37:50;;;;;;;7.50;5.00;;;23.70;48.90;;;;;;221988;1262;24219;-46
2023/05/12 15:42:54;;;;;;;7.80;4.80;;;23.70;48.80;;;;;;221993;1269;23935;-45
2023/05/12 15:47:58;;;;;;;7.50;3.90;;;23.70;48.70;;;;;;221882;1270;22518;-49
2023/05/12 15:53:03;;;;;;;6.90;4.70;;;23.70;49.00;;;;;;221833;1266;22529;-47
2023/05/12 15:58:07;;;;;;;6.20;4.20;;;23.70;49.20;;;;;;221829;1267;22778;-49
2023/05/12 16:03:11;;;;;;;10.40;4.60;;;23.70;48.70;;;;;;221795;1263;22521;-47
2023/05/12 16:08:16;;;;;;;6.00;3.80;;;23.70;49.00;;;;;;221692;1271;22529;-50
2023/05/12 16:13:20;;;;;;;5.50;3.90;;;23.70;48.70;;;;;;221649;1256;24732;-49
2023/05/12 16:18:29;;;;;;;5.00;3.90;;;23.70;48.70;;;;;;221805;1272;22513;-48
2023/05/12 16:23:33;;;;;;;6.00;3.90;;;23.70;49.10;;;;;;222051;1264;25320;-44
2023/05/12 16:28:37;;;;;;;5.40;3.70;;;23.70;48.80;;;;;;221994;1263;22631;-45
2023/05/12 16:33:41;;;;;;;4.30;3.90;;;23.70;48.70;;;;;;221614;1266;25405;-45
2023/05/12 16:38:46;;;;;;;4.30;3.70;;;23.70;48.70;;;;;;221645;1264;22505;-45
2023/05/12 16:43:52;;;;;;;4.50;3.80;;;23.70;48.70;;;;;;221902;1249;22628;-51
2023/05/12 16:48:56;;;;;;;6.00;3.50;;;23.60;48.50;;;;;;221736;1256;24938;-50
2023/05/12 16:54:00;;;;;;;5.70;3.60;;;23.60;48.50;;;;;;221604;1265;24228;-47
2023/05/12 16:59:04;;;;;;;4.70;3.40;;;23.60;48.50;;;;;;221967;1262;22727;-46
2023/05/12 17:04:10;;;;;;;11.80;4.50;;;23.60;48.50;;;;;;221690;1263;22505;-47
2023/05/12 17:09:14;;;;;;;11.20;3.90;;;23.60;48.90;;;;;;221922;1263;24189;-46
2023/05/12 17:14:18;;;;;;;8.80;3.60;;;23.70;48.90;;;;;;221888;1257;24391;-45
2023/05/12 17:19:24;;;;;;;10.80;3.90;;;23.70;48.90;;;;;;221755;1266;22629;-45
2023/05/12 17:24:29;;;;;;;4.80;3.70;;;23.70;49.00;;;;;;221978;1265;22531;-47
2023/05/12 17:29:34;;;;;;;12.40;3.80;;;23.70;49.30;;;;;;221878;1259;24210;-43
2023/05/12 17:34:38;;;;;;;14.90;5.50;;;23.60;49.40;;;;;;221809;1271;23884;-47
2023/05/12 17:39:43;;;;;;;18.80;5.70;;;23.70;49.90;;;;;;221613;1260;22515;-43
2023/05/12 17:44:47;;;;;;;17.00;5.80;;;23.80;49.10;;;;;;221660;1259;22483;-43
2023/05/12 17:49:51;;;;;;;15.30;5.00;;;23.90;50.70;;;;;;221786;1263;23119;-42
2023/05/12 17:54:55;;;;;;;13.50;4.70;;;23.90;49.70;;;;;;221729;1256;25494;-46
2023/05/12 18:00:08;;;;;;;9.70;4.20;;;23.80;49.30;;;;;;221715;1272;22518;-43
2023/05/12 18:05:21;;;;;;;13.30;4.90;;;23.70;49.20;;;;;;221884;1257;22890;-42
2023/05/12 18:10:26;;;;;;;13.70;4.80;;;23.70;48.30;;;;;;221766;1256;22507;-44
2023/05/12 18:15:34;;;;;;;12.20;4.50;;;23.80;48.10;;;;;;221711;1247;24046;-46
2023/05/12 18:20:38;;;;;;;8.30;4.10;;;23.90;49.00;;;;;;221624;1259;24224;-44
2023/05/12 18:25:43;;;;;;;13.30;4.70;;;23.90;49.10;;;;;;221584;1249;22661;-44
2023/05/12 18:30:48;;;;;;;8.10;4.50;;;23.70;49.40;;;;;;221757;1267;24189;-45
2023/05/12 18:35:52;;;;;;;11.30;3.80;;;23.80;49.60;;;;;;221578;1257;22640;-43
2023/05/12 18:40:56;;;;;;;12.70;4.50;;;23.80;49.50;;;;;;221611;1266;22984;-47
2023/05/12 18:46:02;;;;;;;9.80;3.90;;;23.90;49.80;;;;;;221784;1266;25303;-46
2023/05/12 18:51:08;;;;;;;14.00;5.10;;;23.70;50.00;;;;;;221656;1268;22637;-45
2023/05/12 18:56:12;;;;;;;16.90;4.60;;;23.80;50.00;;;;;;221973;1263;26526;-45
2023/05/12 19:01:17;;;;;;;24.00;5.30;;;23.70;50.50;;;;;;221876;1271;22586;-44
2023/05/12 19:06:21;;;;;;;24.00;4.80;;;23.80;51.10;;;;;;221750;1269;24690;-47
2023/05/12 19:11:25;;;;;;;28.10;6.10;;;23.70;50.70;;;;;;221741;1266;22805;-44
2023/05/12 19:16:30;;;;;;;24.30;6.50;;;23.90;51.40;;;;;;221821;1271;23433;-46
2023/05/12 19:21:37;;;;;;;23.00;6.10;;;24.00;51.60;;;;;;221731;1256;22591;-45
2023/05/12 19:26:42;;;;;;;33.00;5.60;;;24.00;51.60;;;;;;221944;1271;22967;-45
2023/05/12 19:31:47;;;;;;;34.80;6.00;;;24.00;51.60;;;;;;221677;1271;23768;-45
2023/05/12 19:36:51;;;;;;;37.50;9.60;;;24.00;51.70;;;;;;221911;1265;25281;-45
2023/05/12 19:41:57;;;;;;;84.80;25.50;;;24.00;52.30;;;;;;221805;1272;22740;-48
2023/05/12 19:47:03;;;;;;;68.30;20.80;;;24.10;52.60;;;;;;221742;1268;22524;-46
2023/05/12 19:52:08;;;;;;;66.90;18.30;;;24.00;52.80;;;;;;222009;1269;22537;-43
2023/05/12 19:57:12;;;;;;;136.80;46.20;;;24.00;53.10;;;;;;221858;1269;22513;-44
2023/05/12 20:02:16;;;;;;;187.40;69.60;;;23.90;52.10;;;;;;221931;1271;25259;-46
2023/05/12 20:07:21;;;;;;;133.20;58.80;;;24.00;54.50;;;;;;221846;1264;24263;-45
2023/05/12 20:12:25;;;;;;;372.90;168.60;;;24.10;53.80;;;;;;221890;1263;22521;-44
2023/05/12 20:17:29;;;;;;;234.30;104.10;;;24.10;55.90;;;;;;221863;1269;23475;-45
2023/05/12 20:22:33;;;;;;;206.00;87.40;;;24.10;54.70;;;;;;221663;1261;22584;-44
2023/05/12 20:27:38;;;;;;;191.90;81.80;;;24.10;54.50;;;;;;221882;1264;22620;-44
2023/05/12 20:32:44;;;;;;;193.40;75.20;;;24.10;55.10;;;;;;221936;1271;25340;-45
2023/05/12 20:37:49;;;;;;;161.20;68.40;;;24.00;57.30;;;;;;222166;1271;25400;-47
2023/05/12 20:42:53;;;;;;;164.10;69.20;;;23.90;59.30;;;;;;221902;1266;25402;-48
2023/05/12 20:47:57;;;;;;;159.20;65.90;;;23.90;58.60;;;;;;221783;1267;22519;-48
2023/05/12 20:53:01;;;;;;;159.80;67.10;;;23.90;57.90;;;;;;221801;1271;22789;-49
2023/05/12 20:58:05;;;;;;;142.40;63.50;;;23.80;58.20;;;;;;221760;1269;22664;-45
2023/05/12 21:03:15;;;;;;;133.60;58.00;;;23.80;57.80;;;;;;221765;1269;22511;-47
2023/05/12 21:08:20;;;;;;;148.50;62.20;;;23.80;58.30;;;;;;221685;1264;22638;-47
2023/05/12 21:13:24;;;;;;;124.20;58.80;;;23.80;60.60;;;;;;221851;1270;22672;-46
2023/05/12 21:18:28;;;;;;;120.80;55.30;;;23.80;59.80;;;;;;221854;1263;24275;-47
2023/05/12 21:23:35;;;;;;;122.80;55.20;;;23.80;59.40;;;;;;221659;1270;22607;-47
2023/05/12 21:28:39;;;;;;;125.70;52.80;;;23.80;58.70;;;;;;221897;1256;23092;-49
2023/05/12 21:33:43;;;;;;;114.10;52.10;;;23.90;58.90;;;;;;221754;1261;24186;-47
2023/05/12 21:38:48;;;;;;;110.50;51.10;;;23.90;58.90;;;;;;221893;1263;23889;-50
2023/05/12 21:43:52;;;;;;;103.30;48.70;;;23.80;59.00;;;;;;221944;1256;22653;-52
2023/05/12 21:48:56;;;;;;;103.20;48.50;;;23.90;58.80;;;;;;221844;1264;22679;-49
2023/05/12 21:54:01;;;;;;;102.10;49.00;;;23.90;58.80;;;;;;221875;1259;22629;-51
2023/05/12 21:59:05;;;;;;;98.40;46.10;;;23.80;58.20;;;;;;221755;1264;22632;-48
2023/05/12 22:04:09;;;;;;;87.10;43.70;;;23.80;58.90;;;;;;222148;1264;22532;-47
2023/05/12 22:09:14;;;;;;;89.50;44.00;;;23.80;58.80;;;;;;221858;1254;23913;-49
2023/05/12 22:14:19;;;;;;;89.40;43.10;;;23.90;58.40;;;;;;221806;1256;25214;-47
2023/05/12 22:19:23;;;;;;;88.70;42.10;;;23.80;58.30;;;;;;221740;1261;22604;-52
2023/05/12 22:24:29;;;;;;;80.30;40.00;;;23.80;58.40;;;;;;221800;1267;24266;-53
2023/05/12 22:29:33;;;;;;;81.40;39.30;;;23.80;58.20;;;;;;221567;1256;22529;-48
2023/05/12 22:34:37;;;;;;;74.90;38.70;;;23.70;58.30;;;;;;224480;1264;22519;-43
2023/05/12 22:39:41;;;;;;;74.50;37.80;;;23.70;58.10;;;;;;221934;1258;22761;-45
2023/05/12 22:44:46;;;;;;;69.60;35.50;;;23.70;58.10;;;;;;223353;1263;22667;-44
2023/05/12 22:49:50;;;;;;;70.50;36.20;;;23.70;57.70;;;;;;221728;1258;23896;-49
2023/05/12 22:54:54;;;;;;;76.80;35.80;;;23.70;57.80;;;;;;221736;1248;22532;-46
2023/05/12 22:59:58;;;;;;;64.30;33.50;;;23.60;57.80;;;;;;221753;1264;22547;-43
2023/05/12 23:05:03;;;;;;;67.30;34.80;;;23.60;57.70;;;;;;221872;1261;23915;-44
2023/05/12 23:10:08;;;;;;;61.40;32.80;;;23.60;57.40;;;;;;224900;1264;22506;-46
2023/05/12 23:15:12;;;;;;;68.40;33.30;;;23.70;57.40;;;;;;228679;1258;22744;-45
2023/05/12 23:20:16;;;;;;;67.50;34.80;;;23.70;57.20;;;;;;223421;1261;24206;-44
2023/05/12 23:25:20;;;;;;;60.50;32.40;;;23.70;56.60;;;;;;221829;1266;22797;-46
2023/05/12 23:30:24;;;;;;;56.20;29.80;;;23.60;57.00;;;;;;222027;1264;22933;-46
2023/05/12 23:35:28;;;;;;;57.60;32.20;;;23.50;57.20;;;;;;221852;1257;24354;-46
2023/05/12 23:40:37;;;;;;;49.50;29.10;;;23.50;57.20;;;;;;221779;1257;24346;-45
2023/05/12 23:45:42;;;;;;;52.20;28.10;;;23.40;57.50;;;;;;221765;1258;22641;-46
2023/05/12 23:50:46;;;;;;;49.30;27.10;;;23.40;57.50;;;;;;221970;1257;24006;-45
2023/05/12 23:55:50;;;;;;;44.60;26.70;;;23.40;57.30;;;;;;222055;1257;22643;-50
